Dalton City, Illinois
Current Conditions -  °F | °C
As of 3:54 PM on Wednesday 22 Oct 2014 (Local Time) from KDEC Reporting Station
Clear Clear  
Wind Chill: 16°   Ceiling: Unl
Heat Index: 16°   Visibility: 10mi
Dew Point:   Wind: 5mph
Humidity: 46%   Direction: 70°ENE
Pressure: 30.27"   Gusts: NA
Location:  39.71°N, 88.8°W
Report Text: KDEC 222054Z 07004KT 10SM CLR 16/04 A3027 RMK AO2 SLP252 T01560039 56019
Loading
Personal Weather Stations






























Interactive Weather Map
Tropical Storm Tracking
New forecast layout! Learn more

10-Day Weather Forecast

Advertisements
Track Severe Weather on mobile